Terminal Aerodrome Forecast
Issued by NWS

Home | Current Version | Previous Version | Graphics & Text | Print | Product List | Glossary On
Versions: 1 2 3 4 5 6 7 8 9 10 11 12 13 14 15 16 17 18 19 20 21 22 23 24 25 26
000
FTUS45 KGGW 271700
TAFGDV
TAF
KGDV 271730Z 2718/2818 VRB13G19KT P6SM VCTS SCT070CB BKN100
      TEMPO 2718/2721 4SM -TSRA SCT050CB BKN080
     FM280300 VRB04KT P6SM VCSH SCT090 BKN150
     FM280900 VRB05KT 6SM BR FEW005 SCT150
      AMD LTD TO CLD VIS AND WIND=

USA.gov is the U.S. government's official web portal to all federal, state and local government web resources and services.